createdAt,value
2023-05-22T00:00:18.028Z,101701.63
2023-05-22T00:02:45.026Z,101698.19
2023-05-22T00:05:15.308Z,101697.41
2023-05-22T00:07:46.174Z,101686.94
2023-05-22T00:10:12.810Z,101685.50
2023-05-22T00:12:39.481Z,101686.28
2023-05-22T00:15:06.898Z,101677.81
2023-05-22T00:17:34.257Z,101676.19
2023-05-22T00:20:11.023Z,101679.47
2023-05-22T00:22:37.936Z,101681.06
2023-05-22T00:25:05.800Z,101674.59
2023-05-22T00:27:33.027Z,101672.38
2023-05-22T00:30:00.325Z,101668.13
2023-05-22T00:32:27.249Z,101662.47
2023-05-22T00:34:53.782Z,101664.28
2023-05-22T00:37:20.544Z,101669.72
2023-05-22T00:39:47.218Z,101671.31
2023-05-22T00:42:13.937Z,101676.34
2023-05-22T00:44:41.900Z,101674.38
2023-05-22T00:47:08.433Z,101657.66
2023-05-22T00:49:35.066Z,101657.44
2023-05-22T00:52:02.164Z,101647.13
2023-05-22T00:54:29.092Z,101637.81
2023-05-22T00:56:56.146Z,101650.13
2023-05-22T00:59:24.096Z,101645.47
2023-05-22T01:01:51.203Z,101642.03
2023-05-22T01:04:18.632Z,101639.44
2023-05-22T01:06:47.741Z,101636.00
2023-05-22T01:09:17.321Z,101629.75
2023-05-22T01:11:57.056Z,101628.16
2023-05-22T01:14:46.058Z,101632.16
2023-05-22T01:17:41.721Z,101632.72
2023-05-22T01:20:18.709Z,101630.47
2023-05-22T01:23:09.194Z,101615.81
2023-05-22T01:25:35.667Z,101618.16
2023-05-22T01:28:29.915Z,101613.09
2023-05-22T01:31:09.139Z,101608.44
2023-05-22T01:33:43.677Z,101612.66
2023-05-22T01:36:14.901Z,101616.31
2023-05-22T01:38:43.088Z,101606.44
2023-05-22T01:41:09.728Z,101608.22
2023-05-22T01:43:36.618Z,101610.63
2023-05-22T01:46:03.165Z,101607.41
2023-05-22T01:48:29.685Z,101608.19
2023-05-22T01:51:00.557Z,101603.34
2023-05-22T01:53:36.074Z,101611.38
2023-05-22T01:56:30.608Z,101594.09
2023-05-22T01:59:09.410Z,101596.09
2023-05-22T02:01:37.901Z,101584.19
2023-05-22T02:04:05.839Z,101577.09
2023-05-22T02:06:33.478Z,101581.69
2023-05-22T02:09:02.429Z,101585.69
2023-05-22T02:11:32.190Z,101577.41
2023-05-22T02:13:58.897Z,101578.44
2023-05-22T02:16:25.865Z,101580.59
2023-05-22T02:19:03.050Z,101572.31
2023-05-22T02:21:29.547Z,101579.94
2023-05-22T02:23:56.105Z,101581.94
2023-05-22T02:26:23.110Z,101574.66
2023-05-22T02:28:49.544Z,101579.69
2023-05-22T02:31:18.190Z,101581.66
2023-05-22T02:33:45.112Z,101572.22
2023-05-22T02:36:13.210Z,101567.00
2023-05-22T02:38:40.012Z,101570.84
2023-05-22T02:41:08.088Z,101575.88
2023-05-22T02:43:34.564Z,101567.84
2023-05-22T02:46:01.399Z,101566.84
2023-05-22T02:48:29.314Z,101561.03
2023-05-22T02:50:55.864Z,101567.66
2023-05-22T02:53:22.455Z,101560.06
2023-05-22T02:55:49.104Z,101559.88
2023-05-22T02:58:15.932Z,101558.50
2023-05-22T03:00:43.327Z,101558.50
2023-05-22T03:03:10.440Z,101561.72
2023-05-22T03:05:37.594Z,101553.09
2023-05-22T03:08:04.199Z,101548.84
2023-05-22T03:10:31.115Z,101555.09
2023-05-22T03:12:57.587Z,101557.50
2023-05-22T03:15:24.093Z,101556.06
2023-05-22T03:17:50.648Z,101551.84
2023-05-22T03:20:17.339Z,101554.44
2023-05-22T03:22:44.562Z,101554.91
2023-05-22T03:25:11.376Z,101558.13
2023-05-22T03:27:41.378Z,101553.88
2023-05-22T03:30:08.740Z,101560.53
2023-05-22T03:32:38.779Z,101557.09
2023-05-22T03:35:06.157Z,101552.69
2023-05-22T03:37:32.643Z,101555.88
2023-05-22T03:39:59.178Z,101566.53
2023-05-22T03:42:25.767Z,101566.53
2023-05-22T03:44:52.179Z,101563.72
2023-05-22T03:47:18.587Z,101558.13
2023-05-22T03:49:45.097Z,101561.72
2023-05-22T03:52:11.544Z,101563.34
2023-05-22T03:54:38.081Z,101558.72
2023-05-22T03:57:04.908Z,101564.56
2023-05-22T03:59:34.253Z,101551.69
2023-05-22T04:02:01.280Z,101564.94
2023-05-22T04:04:28.541Z,101561.34
2023-05-22T04:06:58.029Z,101560.75
2023-05-22T04:09:27.550Z,101556.06
2023-05-22T04:11:54.075Z,101555.09
2023-05-22T04:14:20.541Z,101550.66
2023-05-22T04:16:48.532Z,101555.28
2023-05-22T04:19:18.356Z,101555.47
2023-05-22T04:21:45.183Z,101557.69
2023-05-22T04:24:11.832Z,101571.56
2023-05-22T04:26:41.722Z,101564.53
2023-05-22T04:29:14.302Z,101576.78
2023-05-22T04:31:40.997Z,101589.13
2023-05-22T04:34:07.714Z,101589.53
2023-05-22T04:36:34.446Z,101593.63
2023-05-22T04:39:04.981Z,101598.84
2023-05-22T04:41:32.550Z,101598.63
2023-05-22T04:44:00.365Z,101604.50
2023-05-22T04:46:28.612Z,101605.88
2023-05-22T04:48:55.253Z,101607.72
2023-05-22T04:51:23.058Z,101615.56
2023-05-22T04:53:49.852Z,101614.97
2023-05-22T04:56:24.329Z,101617.81
2023-05-22T04:59:00.068Z,101621.47
2023-05-22T05:01:27.753Z,101620.69
2023-05-22T05:03:54.378Z,101620.56
2023-05-22T05:06:21.613Z,101619.00
2023-05-22T05:08:49.716Z,101619.22
2023-05-22T05:11:16.233Z,101622.25
2023-05-22T05:13:42.963Z,101609.00
2023-05-22T05:16:09.474Z,101618.31
2023-05-22T05:18:36.543Z,101615.38
2023-05-22T05:21:03.038Z,101620.25
2023-05-22T05:23:29.477Z,101605.34
2023-05-22T05:25:56.122Z,101601.41
2023-05-22T05:28:22.615Z,101602.81
2023-05-22T05:30:49.399Z,101603.47
2023-05-22T05:33:16.138Z,101606.25
2023-05-22T05:35:43.235Z,101598.63
2023-05-22T05:38:09.797Z,101586.41
2023-05-22T05:40:36.302Z,101595.72
2023-05-22T05:43:03.515Z,101594.81
2023-05-22T05:45:30.282Z,101583.38
2023-05-22T05:47:56.896Z,101594.81
2023-05-22T05:50:23.757Z,101592.97
2023-05-22T05:52:50.310Z,101603.03
2023-05-22T05:55:16.875Z,101594.31
2023-05-22T05:57:43.672Z,101580.78
2023-05-22T06:00:11.599Z,101579.59
2023-05-22T06:02:38.624Z,101588.44
2023-05-22T06:05:05.729Z,101589.78
2023-05-22T06:07:32.317Z,101588.44
2023-05-22T06:09:59.032Z,101581.78
2023-05-22T06:12:25.502Z,101580.91
2023-05-22T06:14:51.913Z,101582.50
2023-05-22T06:17:18.351Z,101588.84
2023-05-22T06:19:44.746Z,101594.47
2023-05-22T06:22:11.181Z,101591.91
2023-05-22T06:24:37.630Z,101584.56
2023-05-22T06:27:04.246Z,101583.59
2023-05-22T06:29:31.043Z,101598.53
2023-05-22T06:31:57.545Z,101595.13
2023-05-22T06:34:25.646Z,101594.34
2023-05-22T06:36:52.166Z,101596.44
2023-05-22T06:39:18.945Z,101604.44
2023-05-22T06:41:45.546Z,101608.78
2023-05-22T06:44:12.910Z,101609.13
2023-05-22T06:46:39.523Z,101599.19
2023-05-22T06:49:06.117Z,101604.75
2023-05-22T06:51:32.730Z,101611.84
2023-05-22T06:53:59.261Z,101617.41
2023-05-22T06:56:25.684Z,101612.16
2023-05-22T06:58:52.082Z,101606.25
2023-05-22T07:01:19.137Z,101616.44
2023-05-22T07:03:45.598Z,101610.50
2023-05-22T07:06:12.280Z,101621.09
2023-05-22T07:08:38.823Z,101612.47
2023-05-22T07:11:07.559Z,101612.06
2023-05-22T07:13:34.097Z,101617.66
2023-05-22T07:16:00.754Z,101619.41
2023-05-22T07:18:27.236Z,101624.81
2023-05-22T07:20:53.679Z,101616.88
2023-05-22T07:23:20.161Z,101618.75
2023-05-22T07:25:46.757Z,101615.75
2023-05-22T07:28:13.225Z,101619.75
2023-05-22T07:30:39.930Z,101615.00
2023-05-22T07:33:09.851Z,101623.69
2023-05-22T07:35:36.513Z,101625.28
2023-05-22T07:38:04.377Z,101619.03
2023-05-22T07:40:31.298Z,101622.63
2023-05-22T07:42:57.693Z,101615.06
2023-05-22T07:45:24.386Z,101626.63
2023-05-22T07:47:50.907Z,101615.00
2023-05-22T07:50:18.193Z,101622.75
2023-05-22T07:52:44.827Z,101626.22
2023-05-22T07:55:11.482Z,101618.28
2023-05-22T07:57:38.679Z,101621.97
2023-05-22T08:00:14.633Z,101625.97
2023-05-22T08:02:41.705Z,101629.38
2023-05-22T08:05:09.242Z,101628.22
2023-05-22T08:07:36.542Z,101624.59
2023-05-22T08:10:06.759Z,101634.63
2023-05-22T08:12:33.199Z,101629.69
2023-05-22T08:14:59.850Z,101632.66
2023-05-22T08:17:26.358Z,101636.50
2023-05-22T08:19:52.952Z,101637.47
2023-05-22T08:22:19.491Z,101627.63
2023-05-22T08:24:45.895Z,101639.75
2023-05-22T08:27:12.333Z,101641.50
2023-05-22T08:29:38.825Z,101643.91
2023-05-22T08:32:05.653Z,101642.59
2023-05-22T08:34:33.211Z,101634.16
2023-05-22T08:36:59.980Z,101630.97
2023-05-22T08:39:26.449Z,101626.28
2023-05-22T08:41:52.923Z,101626.94
2023-05-22T08:44:20.433Z,101631.63
2023-05-22T08:46:47.241Z,101625.03
2023-05-22T08:49:13.978Z,101623.50
2023-05-22T08:51:42.340Z,101620.16
2023-05-22T08:54:09.831Z,101617.25
2023-05-22T08:56:39.798Z,101621.63
2023-05-22T08:59:12.713Z,101626.78
2023-05-22T09:01:39.512Z,101624.38
2023-05-22T09:04:06.486Z,101624.69
2023-05-22T09:06:33.373Z,101623.19
2023-05-22T09:09:00.044Z,101617.28
2023-05-22T09:11:26.575Z,101616.16
2023-05-22T09:13:53.313Z,101614.47
2023-05-22T09:16:19.931Z,101626.00
2023-05-22T09:18:46.984Z,101615.63
2023-05-22T09:21:28.708Z,101616.75
2023-05-22T09:24:01.759Z,101616.25
2023-05-22T09:26:33.165Z,101608.75
2023-05-22T09:29:00.796Z,101613.03
2023-05-22T09:31:29.351Z,101606.19
2023-05-22T09:33:56.334Z,101603.53
2023-05-22T09:36:31.135Z,101606.72
2023-05-22T09:39:00.402Z,101603.78
2023-05-22T09:41:30.381Z,101604.06
2023-05-22T09:43:57.454Z,101596.31
2023-05-22T09:46:25.078Z,101597.19
2023-05-22T09:48:54.811Z,101600.84
2023-05-22T09:51:26.528Z,101590.38
2023-05-22T09:53:59.109Z,101594.06
2023-05-22T09:56:38.570Z,101594.81
2023-05-22T09:59:09.621Z,101587.91
2023-05-22T10:01:38.652Z,101584.81
2023-05-22T10:04:06.620Z,101596.44
2023-05-22T10:06:34.588Z,101590.34
2023-05-22T10:09:07.217Z,101588.50
2023-05-22T10:11:35.517Z,101592.69
2023-05-22T10:14:04.055Z,101591.78
2023-05-22T10:16:31.260Z,101590.03
2023-05-22T10:18:58.693Z,101594.03
2023-05-22T10:21:25.773Z,101597.72
2023-05-22T10:23:53.679Z,101588.09
2023-05-22T10:26:20.763Z,101596.53
2023-05-22T10:28:52.836Z,101592.09
2023-05-22T10:31:27.537Z,101588.16
2023-05-22T10:34:06.801Z,101585.25
2023-05-22T10:36:58.185Z,101583.38
2023-05-22T10:39:51.384Z,101578.53
2023-05-22T10:42:17.990Z,101580.63
2023-05-22T10:44:44.488Z,101581.41
2023-05-22T10:47:13.322Z,101569.72
2023-05-22T10:49:46.820Z,101579.22
2023-05-22T10:52:18.454Z,101575.28
2023-05-22T10:54:46.140Z,101573.19
2023-05-22T10:57:17.172Z,101572.59
2023-05-22T10:59:46.865Z,101575.81
2023-05-22T11:02:30.970Z,101578.22
2023-05-22T11:05:20.958Z,101575.91
2023-05-22T11:07:48.203Z,101569.81
2023-05-22T11:10:14.653Z,101578.06
2023-05-22T11:12:41.499Z,101568.16
2023-05-22T11:15:11.255Z,101578.75
2023-05-22T11:17:51.599Z,101566.59
2023-05-22T11:20:22.587Z,101567.84
2023-05-22T11:22:59.796Z,101568.09
2023-05-22T11:25:27.747Z,101562.56
2023-05-22T11:27:56.010Z,101551.22
2023-05-22T11:30:26.701Z,101559.44
2023-05-22T11:32:53.332Z,101552.78
2023-05-22T11:35:21.962Z,101549.41
2023-05-22T11:37:49.887Z,101555.88
2023-05-22T11:40:18.283Z,101549.50
2023-05-22T11:42:44.961Z,101553.56
2023-05-22T11:45:11.816Z,101543.31
2023-05-22T11:47:38.488Z,101546.91
2023-05-22T11:50:07.003Z,101546.94
2023-05-22T11:52:34.925Z,101537.31
2023-05-22T11:55:01.867Z,101540.84
2023-05-22T11:57:28.603Z,101538.91
2023-05-22T11:59:55.085Z,101548.28
2023-05-22T12:02:21.557Z,101544.72
2023-05-22T12:04:48.549Z,101540.06
2023-05-22T12:07:15.120Z,101540.88
2023-05-22T12:09:42.477Z,101542.97
2023-05-22T12:12:10.039Z,101547.28
2023-05-22T12:14:36.743Z,101540.88
2023-05-22T12:17:06.435Z,101544.09
2023-05-22T12:19:33.027Z,101541.44
2023-05-22T12:21:59.623Z,101553.59
2023-05-22T12:24:26.232Z,101543.53
2023-05-22T12:26:53.501Z,101556.22
2023-05-22T12:29:22.680Z,101546.84
2023-05-22T12:31:50.216Z,101547.22
2023-05-22T12:34:18.489Z,101549.81
2023-05-22T12:36:47.456Z,101553.72
2023-05-22T12:39:18.517Z,101543.59
2023-05-22T12:41:46.151Z,101543.03
2023-05-22T12:44:16.815Z,101537.94
2023-05-22T12:46:43.787Z,101540.38
2023-05-22T12:49:11.045Z,101533.78
2023-05-22T12:51:37.697Z,101534.84
2023-05-22T12:54:04.655Z,101543.56
2023-05-22T12:56:31.822Z,101540.38
2023-05-22T12:58:59.020Z,101550.06
2023-05-22T13:01:26.584Z,101541.72
2023-05-22T13:03:53.319Z,101553.59
2023-05-22T13:06:21.043Z,101557.16
2023-05-22T13:08:47.510Z,101560.44
2023-05-22T13:11:14.044Z,101561.03
2023-05-22T13:13:40.712Z,101563.09
2023-05-22T13:16:07.234Z,101565.81
2023-05-22T13:18:33.682Z,101552.53
2023-05-22T13:21:00.665Z,101554.09
2023-05-22T13:23:27.175Z,101563.59
2023-05-22T13:25:53.590Z,101566.19
2023-05-22T13:28:20.086Z,101565.09
2023-05-22T13:30:46.562Z,101565.94
2023-05-22T13:33:13.554Z,101554.53
2023-05-22T13:35:40.631Z,101561.50
2023-05-22T13:38:07.782Z,101556.09
2023-05-22T13:40:34.259Z,101569.28
2023-05-22T13:43:00.767Z,101567.44
2023-05-22T13:45:27.814Z,101565.84
2023-05-22T13:47:54.304Z,101572.22
2023-05-22T13:50:21.139Z,101575.66
2023-05-22T13:52:47.653Z,101568.78
2023-05-22T13:55:14.146Z,101571.38
2023-05-22T13:57:40.840Z,101576.41
2023-05-22T14:00:09.384Z,101584.44
2023-05-22T14:02:36.140Z,101588.19
2023-05-22T14:05:02.769Z,101596.94
2023-05-22T14:07:29.275Z,101595.09
2023-05-22T14:09:55.870Z,101602.31
2023-05-22T14:12:22.349Z,101601.97
2023-05-22T14:14:48.756Z,101596.19
2023-05-22T14:17:15.263Z,101605.75
2023-05-22T14:19:41.781Z,101608.16
2023-05-22T14:22:08.350Z,101610.53
2023-05-22T14:24:37.033Z,101617.97
2023-05-22T14:27:03.723Z,101614.81
2023-05-22T14:29:31.205Z,101619.81
2023-05-22T14:32:04.185Z,101616.38
2023-05-22T14:34:31.523Z,101611.63
2023-05-22T14:36:58.477Z,101623.03
2023-05-22T14:39:25.902Z,101628.53
2023-05-22T14:41:55.761Z,101628.88
2023-05-22T14:44:25.174Z,101630.41
2023-05-22T14:46:53.447Z,101635.84
2023-05-22T14:49:20.304Z,101635.34
2023-05-22T14:51:48.130Z,101633.16
2023-05-22T14:54:17.553Z,101639.03
2023-05-22T14:56:43.956Z,101638.22
2023-05-22T14:59:11.634Z,101638.34
2023-05-22T15:01:38.906Z,101634.38
2023-05-22T15:04:06.031Z,101637.44
2023-05-22T15:06:32.520Z,101630.00
2023-05-22T15:08:59.055Z,101632.00
2023-05-22T15:11:26.156Z,101637.38
2023-05-22T15:13:54.320Z,101634.47
2023-05-22T15:16:22.217Z,101641.75
2023-05-22T15:18:48.736Z,101639.97
2023-05-22T15:21:15.398Z,101636.69
2023-05-22T15:23:41.975Z,101648.97
2023-05-22T15:26:08.523Z,101646.66
2023-05-22T15:28:34.937Z,101652.31
2023-05-22T15:31:01.358Z,101658.88
2023-05-22T15:33:28.403Z,101669.69
2023-05-22T15:35:54.849Z,101666.94
2023-05-22T15:38:21.365Z,101666.19
2023-05-22T15:40:47.830Z,101674.91
2023-05-22T15:43:14.237Z,101682.88
2023-05-22T15:45:41.318Z,101683.69
2023-05-22T15:48:08.030Z,101684.94
2023-05-22T15:50:34.598Z,101672.59
2023-05-22T15:53:01.442Z,101677.69
2023-05-22T15:55:28.482Z,101687.31
2023-05-22T15:57:55.115Z,101686.75
2023-05-22T16:00:21.599Z,101686.22
2023-05-22T16:02:49.230Z,101682.72
2023-05-22T16:05:16.217Z,101678.09
2023-05-22T16:07:42.962Z,101674.84
2023-05-22T16:10:10.059Z,101674.91
2023-05-22T16:12:37.987Z,101671.50
2023-05-22T16:15:06.720Z,101670.34
2023-05-22T16:17:33.665Z,101669.03
2023-05-22T16:20:00.234Z,101672.34
2023-05-22T16:22:40.069Z,101684.72
2023-05-22T16:25:07.620Z,101681.25
2023-05-22T16:27:34.023Z,101683.09
2023-05-22T16:30:02.565Z,101678.09
2023-05-22T16:32:29.760Z,101682.28
2023-05-22T16:34:56.215Z,101691.53
2023-05-22T16:37:23.869Z,101685.34
2023-05-22T16:39:50.292Z,101690.38
2023-05-22T16:42:17.536Z,101686.97
2023-05-22T16:44:43.995Z,101691.28
2023-05-22T16:47:10.538Z,101698.66
2023-05-22T16:49:37.092Z,101695.53
2023-05-22T16:52:03.632Z,101696.59
2023-05-22T16:54:30.056Z,101690.31
2023-05-22T16:56:56.534Z,101693.97
2023-05-22T16:59:22.996Z,101703.03
2023-05-22T17:01:49.550Z,101693.03
2023-05-22T17:04:16.243Z,101700.50
2023-05-22T17:06:45.536Z,101701.38
2023-05-22T17:09:11.979Z,101708.22
2023-05-22T17:11:38.407Z,101706.44
2023-05-22T17:14:07.177Z,101715.19
2023-05-22T17:16:34.256Z,101709.47
2023-05-22T17:19:01.839Z,101713.09
2023-05-22T17:21:28.780Z,101716.59
2023-05-22T17:23:55.311Z,101707.44
2023-05-22T17:26:21.824Z,101716.72
2023-05-22T17:28:48.361Z,101712.34
2023-05-22T17:31:15.158Z,101722.06
2023-05-22T17:33:41.655Z,101720.91
2023-05-22T17:36:08.163Z,101727.50
2023-05-22T17:38:34.636Z,101722.06
2023-05-22T17:41:01.175Z,101732.53
2023-05-22T17:43:27.618Z,101728.88
2023-05-22T17:45:54.332Z,101723.16
2023-05-22T17:48:23.649Z,101726.63
2023-05-22T17:50:50.282Z,101730.19
2023-05-22T17:53:20.604Z,101736.91
2023-05-22T17:55:48.333Z,101732.75
2023-05-22T17:58:16.042Z,101733.25
2023-05-22T18:00:43.265Z,101736.31
2023-05-22T18:03:09.721Z,101736.66
2023-05-22T18:05:36.185Z,101745.41
2023-05-22T18:08:02.790Z,101746.78
2023-05-22T18:10:29.364Z,101742.28
2023-05-22T18:12:56.046Z,101737.16
2023-05-22T18:15:22.629Z,101741.84
2023-05-22T18:17:49.131Z,101750.41
2023-05-22T18:20:16.730Z,101750.25
2023-05-22T18:22:43.271Z,101751.50
2023-05-22T18:25:09.985Z,101754.56
2023-05-22T18:27:36.412Z,101752.38
2023-05-22T18:30:04.982Z,101752.91
2023-05-22T18:32:31.811Z,101757.50
2023-05-22T18:35:03.408Z,101760.63
2023-05-22T18:37:30.018Z,101757.06
2023-05-22T18:39:56.443Z,101766.41
2023-05-22T18:42:22.901Z,101764.34
2023-05-22T18:44:49.658Z,101768.25
2023-05-22T18:47:16.526Z,101771.16
2023-05-22T18:49:43.009Z,101768.31
2023-05-22T18:52:09.456Z,101771.41
2023-05-22T18:54:35.912Z,101772.47
2023-05-22T18:57:02.307Z,101767.41
2023-05-22T18:59:28.731Z,101776.97
2023-05-22T19:01:55.204Z,101780.63
2023-05-22T19:04:21.722Z,101779.41
2023-05-22T19:06:48.279Z,101777.25
2023-05-22T19:09:14.680Z,101771.06
2023-05-22T19:11:41.092Z,101769.50
2023-05-22T19:14:07.556Z,101774.78
2023-05-22T19:16:34.031Z,101786.16
2023-05-22T19:19:00.607Z,101789.44
2023-05-22T19:21:27.091Z,101786.81
2023-05-22T19:23:53.495Z,101792.28
2023-05-22T19:26:19.999Z,101791.91
2023-05-22T19:28:46.439Z,101793.94
2023-05-22T19:31:12.897Z,101810.34
2023-05-22T19:33:39.412Z,101812.16
2023-05-22T19:36:06.736Z,101819.06
2023-05-22T19:38:33.346Z,101829.19
2023-05-22T19:40:59.858Z,101835.25
2023-05-22T19:43:26.408Z,101832.44
2023-05-22T19:45:53.476Z,101833.44
2023-05-22T19:48:20.169Z,101830.41
2023-05-22T19:50:46.692Z,101843.97
2023-05-22T19:53:13.197Z,101844.75
2023-05-22T19:55:39.596Z,101849.41
2023-05-22T19:58:06.020Z,101861.94
2023-05-22T20:00:33.378Z,101861.53
2023-05-22T20:02:59.929Z,101873.66
2023-05-22T20:05:26.615Z,101865.19
2023-05-22T20:07:53.047Z,101861.31
2023-05-22T20:10:19.833Z,101869.59
2023-05-22T20:12:47.068Z,101861.91
2023-05-22T20:15:15.246Z,101876.66
2023-05-22T20:17:42.483Z,101876.88
2023-05-22T20:20:09.762Z,101885.53
2023-05-22T20:22:36.230Z,101883.31
2023-05-22T20:25:05.123Z,101882.13
2023-05-22T20:27:31.788Z,101889.56
2023-05-22T20:30:00.069Z,101885.75
2023-05-22T20:32:27.009Z,101881.72
2023-05-22T20:34:55.242Z,101894.22
2023-05-22T20:37:22.170Z,101901.50
2023-05-22T20:39:50.023Z,101893.44
2023-05-22T20:42:19.627Z,101909.19
2023-05-22T20:44:46.276Z,101912.00
2023-05-22T20:47:12.694Z,101929.00
2023-05-22T20:49:39.294Z,101930.56
2023-05-22T20:52:05.954Z,101930.56
2023-05-22T20:54:34.408Z,101938.22
2023-05-22T20:57:01.552Z,101947.09
2023-05-22T20:59:30.967Z,101940.97
2023-05-22T21:01:57.795Z,101946.75
2023-05-22T21:04:25.684Z,101948.88
2023-05-22T21:06:52.196Z,101948.22
2023-05-22T21:09:18.654Z,101960.66
2023-05-22T21:11:45.092Z,101958.41
2023-05-22T21:14:11.513Z,101951.34
2023-05-22T21:16:39.599Z,101963.19
2023-05-22T21:19:07.206Z,101952.28
2023-05-22T21:21:33.901Z,101953.25
2023-05-22T21:24:00.447Z,101959.44
2023-05-22T21:26:27.429Z,101959.19
2023-05-22T21:28:54.567Z,101959.56
2023-05-22T21:31:21.181Z,101965.81
2023-05-22T21:33:47.673Z,101970.28
2023-05-22T21:36:14.142Z,101960.00
2023-05-22T21:38:40.862Z,101966.00
2023-05-22T21:41:07.349Z,101956.63
2023-05-22T21:43:33.757Z,101957.38
2023-05-22T21:46:00.306Z,101965.59
2023-05-22T21:48:26.755Z,101970.66
2023-05-22T21:50:53.164Z,101963.22
2023-05-22T21:53:19.654Z,101968.66
2023-05-22T21:55:46.174Z,101970.28
2023-05-22T21:58:13.661Z,101968.66
2023-05-22T22:00:41.107Z,101971.66
2023-05-22T22:03:07.954Z,101970.84
2023-05-22T22:05:36.131Z,101965.97
2023-05-22T22:08:02.577Z,101966.47
2023-05-22T22:10:28.996Z,101961.34
2023-05-22T22:12:55.638Z,101964.09
2023-05-22T22:15:22.168Z,101974.94
2023-05-22T22:17:50.046Z,101975.50
2023-05-22T22:20:17.418Z,101970.63
2023-05-22T22:22:45.036Z,101971.44
2023-05-22T22:25:12.082Z,101977.69
2023-05-22T22:27:38.536Z,101969.63
2023-05-22T22:30:05.558Z,101968.84
2023-05-22T22:32:32.065Z,101973.34
2023-05-22T22:34:58.563Z,101959.41
2023-05-22T22:37:25.197Z,101963.66
2023-05-22T22:39:51.753Z,101965.09
2023-05-22T22:42:18.201Z,101952.22
2023-05-22T22:44:44.668Z,101958.88
2023-05-22T22:47:11.101Z,101959.22
2023-05-22T22:49:38.326Z,101962.47
2023-05-22T22:52:05.213Z,101959.84
2023-05-22T22:54:31.788Z,101952.81
2023-05-22T22:56:58.368Z,101963.47
2023-05-22T22:59:24.856Z,101964.09
2023-05-22T23:01:51.407Z,101962.09
2023-05-22T23:04:18.015Z,101965.72
2023-05-22T23:06:44.597Z,101974.31
2023-05-22T23:09:11.315Z,101973.53
2023-05-22T23:11:38.337Z,101982.19
2023-05-22T23:14:07.266Z,101981.75
2023-05-22T23:16:40.615Z,101985.97
2023-05-22T23:19:07.974Z,101982.91
2023-05-22T23:21:35.212Z,101993.75
2023-05-22T23:24:04.434Z,101989.53
2023-05-22T23:26:32.331Z,102001.78
2023-05-22T23:28:59.568Z,102000.53
2023-05-22T23:31:26.300Z,102004.13
2023-05-22T23:33:53.004Z,102001.53
2023-05-22T23:36:19.447Z,102001.25
2023-05-22T23:38:48.773Z,101995.97
2023-05-22T23:41:17.367Z,102007.31
2023-05-22T23:43:44.485Z,102004.09
2023-05-22T23:46:13.156Z,102011.50
2023-05-22T23:48:41.568Z,102014.28
2023-05-22T23:51:14.089Z,102015.09
2023-05-22T23:53:43.651Z,102017.09
2023-05-22T23:56:10.760Z,102008.41
2023-05-22T23:58:37.962Z,102013.19
